N058SB KNOW-KPDX
Flight info
| Callsign | N058SB |
|---|---|
| Flight time | 1h 13m |
| Altitude | 11000 |
| Route | ARRIE BUWZO KRATR2 |
| Aircraft | BE58/L-SDFGRY/C |
Departure
| Time | 2026-05-05 23:35 |
|---|---|
| Airport | Port Angeles Cgas Airport (KNOW) |
Arrival
| Time | 2026-05-06 00:48 |
|---|---|
| Airport | Portland International Airport (KPDX) |
| Time | Latitude | Longitude | Altitude | Speed | Heading |
|---|---|---|---|---|---|
| 2026-05-05 23:18 | 48.14035 | -123.40908 | 9 ft | 0 kts | 16° |
| 2026-05-05 23:29 | 48.14045 | -123.40895 | 10 ft | 2 kts | 56° |
| 2026-05-05 23:29 | 48.14050 | -123.40888 | 7 ft | 0 kts | 27° |
| 2026-05-05 23:32 | 48.14057 | -123.40854 | 11 ft | 10 kts | 76° |
| 2026-05-05 23:33 | 48.14087 | -123.40828 | 11 ft | 7 kts | 22° |
| 2026-05-05 23:33 | 48.14093 | -123.40690 | 13 ft | 22 kts | 100° |
| 2026-05-05 23:33 | 48.14075 | -123.40494 | 17 ft | 0 kts | 29° |
| 2026-05-05 23:33 | 48.14075 | -123.40493 | 17 ft | 0 kts | 29° |
| 2026-05-05 23:34 | 48.14090 | -123.40499 | 17 ft | 7 kts | 296° |
| 2026-05-05 23:34 | 48.14099 | -123.40657 | 14 ft | 41 kts | 273° |
| 2026-05-05 23:34 | 48.14134 | -123.41506 | 35 ft | 111 kts | 273° |
| 2026-05-05 23:35 | 48.14183 | -123.42753 | 426 ft | 125 kts | 274° |
| 2026-05-05 23:35 | 48.14188 | -123.44007 | 1017 ft | 122 kts | 274° |
| 2026-05-05 23:35 | 48.14199 | -123.45263 | 1532 ft | 119 kts | 271° |
| 2026-05-05 23:35 | 48.14118 | -123.46457 | 2124 ft | 114 kts | 259° |
| 2026-05-05 23:36 | 48.13769 | -123.47537 | 2477 ft | 122 kts | 230° |
| 2026-05-05 23:36 | 48.13033 | -123.48144 | 2855 ft | 125 kts | 192° |
| 2026-05-05 23:36 | 48.12184 | -123.47910 | 3242 ft | 128 kts | 155° |
| 2026-05-05 23:36 | 48.11371 | -123.47382 | 3624 ft | 126 kts | 159° |
| 2026-05-05 23:37 | 48.10566 | -123.46916 | 4008 ft | 125 kts | 160° |
| 2026-05-05 23:37 | 48.09759 | -123.46407 | 4353 ft | 125 kts | 154° |
| 2026-05-05 23:37 | 48.09018 | -123.45783 | 4741 ft | 124 kts | 152° |
| 2026-05-05 23:37 | 48.08253 | -123.45167 | 5077 ft | 125 kts | 153° |
| 2026-05-05 23:38 | 48.07466 | -123.44536 | 5362 ft | 131 kts | 153° |
| 2026-05-05 23:38 | 48.06637 | -123.43904 | 5633 ft | 136 kts | 154° |
| 2026-05-05 23:38 | 48.06074 | -123.43486 | 5812 ft | 137 kts | 154° |
| 2026-05-05 23:38 | 48.05205 | -123.42849 | 6077 ft | 140 kts | 154° |
| 2026-05-05 23:39 | 48.04019 | -123.41997 | 6425 ft | 143 kts | 159° |
| 2026-05-05 23:39 | 48.03378 | -123.41935 | 6586 ft | 141 kts | 200° |
| 2026-05-05 23:39 | 48.02479 | -123.43243 | 6918 ft | 140 kts | 227° |
| 2026-05-05 23:39 | 48.01677 | -123.44079 | 7161 ft | 143 kts | 204° |
| 2026-05-05 23:40 | 48.00709 | -123.44432 | 7409 ft | 144 kts | 192° |
| 2026-05-05 23:40 | 47.99722 | -123.44697 | 7662 ft | 144 kts | 191° |
| 2026-05-05 23:40 | 47.99051 | -123.44866 | 7818 ft | 145 kts | 191° |
| 2026-05-05 23:40 | 47.97752 | -123.45186 | 8138 ft | 141 kts | 191° |
| 2026-05-05 23:41 | 47.97115 | -123.45344 | 8298 ft | 140 kts | 191° |
| 2026-05-05 23:41 | 47.96159 | -123.45581 | 8543 ft | 140 kts | 191° |
| 2026-05-05 23:41 | 47.95204 | -123.45814 | 8782 ft | 137 kts | 190° |
| 2026-05-05 23:41 | 47.94282 | -123.46037 | 9021 ft | 132 kts | 191° |
| 2026-05-05 23:42 | 47.93393 | -123.46255 | 9266 ft | 128 kts | 191° |
| 2026-05-05 23:42 | 47.92531 | -123.46467 | 9507 ft | 124 kts | 191° |
| 2026-05-05 23:42 | 47.91699 | -123.46672 | 9743 ft | 119 kts | 191° |
| 2026-05-05 23:42 | 47.90914 | -123.46865 | 10022 ft | 109 kts | 193° |
| 2026-05-05 23:43 | 47.90118 | -123.47063 | 10064 ft | 124 kts | 193° |
| 2026-05-05 23:43 | 47.89211 | -123.47287 | 10084 ft | 134 kts | 192° |
| 2026-05-05 23:43 | 47.88293 | -123.47510 | 10218 ft | 133 kts | 191° |
| 2026-05-05 23:43 | 47.87386 | -123.47731 | 10340 ft | 132 kts | 191° |
| 2026-05-05 23:44 | 47.86466 | -123.47956 | 10464 ft | 139 kts | 192° |
| 2026-05-05 23:44 | 47.85491 | -123.48195 | 10593 ft | 145 kts | 192° |
| 2026-05-05 23:44 | 47.84493 | -123.48438 | 10719 ft | 145 kts | 192° |
| 2026-05-05 23:44 | 47.83484 | -123.48682 | 10847 ft | 149 kts | 192° |
| 2026-05-05 23:45 | 47.82452 | -123.48936 | 10983 ft | 152 kts | 191° |
| 2026-05-05 23:45 | 47.81396 | -123.49194 | 11060 ft | 157 kts | 190° |
| 2026-05-05 23:45 | 47.80284 | -123.49386 | 11067 ft | 165 kts | 172° |
| 2026-05-05 23:45 | 47.79259 | -123.48621 | 11072 ft | 170 kts | 141° |
| 2026-05-05 23:46 | 47.78299 | -123.47544 | 11068 ft | 175 kts | 142° |
| 2026-05-05 23:46 | 47.77334 | -123.46468 | 11073 ft | 175 kts | 141° |
| 2026-05-05 23:46 | 47.76363 | -123.45354 | 11067 ft | 177 kts | 137° |
| 2026-05-05 23:46 | 47.75487 | -123.44057 | 11067 ft | 179 kts | 132° |
| 2026-05-05 23:47 | 47.74613 | -123.42734 | 11066 ft | 180 kts | 134° |
| 2026-05-05 23:47 | 47.73724 | -123.41448 | 11065 ft | 177 kts | 134° |
| 2026-05-05 23:47 | 47.72841 | -123.40179 | 11069 ft | 178 kts | 134° |
| 2026-05-05 23:47 | 47.71940 | -123.38885 | 11066 ft | 181 kts | 134° |
| 2026-05-05 23:48 | 47.71034 | -123.37582 | 11070 ft | 181 kts | 135° |
| 2026-05-05 23:48 | 47.70139 | -123.36300 | 11064 ft | 179 kts | 134° |
| 2026-05-05 23:48 | 47.69466 | -123.35332 | 11066 ft | 179 kts | 133° |
| 2026-05-05 23:48 | 47.68569 | -123.34045 | 11066 ft | 180 kts | 133° |
| 2026-05-05 23:49 | 47.67661 | -123.32748 | 11066 ft | 182 kts | 133° |
| 2026-05-05 23:49 | 47.66749 | -123.31441 | 11062 ft | 182 kts | 134° |
| 2026-05-05 23:49 | 47.65849 | -123.30150 | 11065 ft | 179 kts | 133° |
| 2026-05-05 23:49 | 47.64952 | -123.28865 | 11059 ft | 178 kts | 133° |
| 2026-05-05 23:50 | 47.64065 | -123.27594 | 11060 ft | 177 kts | 133° |
| 2026-05-05 23:50 | 47.63174 | -123.26323 | 11055 ft | 177 kts | 133° |
| 2026-05-05 23:50 | 47.62288 | -123.25057 | 11060 ft | 178 kts | 134° |
| 2026-05-05 23:50 | 47.61409 | -123.23798 | 11059 ft | 179 kts | 134° |
| 2026-05-05 23:51 | 47.60519 | -123.22526 | 11058 ft | 177 kts | 133° |
| 2026-05-05 23:51 | 47.59631 | -123.21260 | 11059 ft | 177 kts | 134° |
| 2026-05-05 23:51 | 47.58743 | -123.19994 | 11063 ft | 178 kts | 133° |
| 2026-05-05 23:51 | 47.57845 | -123.18712 | 11060 ft | 180 kts | 133° |
| 2026-05-05 23:52 | 47.56941 | -123.17425 | 11065 ft | 180 kts | 134° |
| 2026-05-05 23:52 | 47.56041 | -123.16144 | 11064 ft | 180 kts | 134° |
| 2026-05-05 23:52 | 47.55143 | -123.14862 | 11063 ft | 179 kts | 134° |
| 2026-05-05 23:52 | 47.54242 | -123.13582 | 11061 ft | 180 kts | 133° |
| 2026-05-05 23:53 | 47.53340 | -123.12298 | 11060 ft | 180 kts | 133° |
| 2026-05-05 23:53 | 47.52452 | -123.11035 | 11066 ft | 180 kts | 133° |
| 2026-05-05 23:53 | 47.51548 | -123.09753 | 11065 ft | 180 kts | 134° |
| 2026-05-05 23:53 | 47.50646 | -123.08471 | 11064 ft | 180 kts | 134° |
| 2026-05-05 23:54 | 47.49745 | -123.07191 | 11061 ft | 180 kts | 134° |
| 2026-05-05 23:54 | 47.48843 | -123.05911 | 11062 ft | 179 kts | 134° |
| 2026-05-05 23:54 | 47.47944 | -123.04636 | 11062 ft | 179 kts | 134° |
| 2026-05-05 23:54 | 47.47044 | -123.03361 | 11062 ft | 179 kts | 134° |
| 2026-05-05 23:55 | 47.46146 | -123.02088 | 11062 ft | 179 kts | 134° |
| 2026-05-05 23:55 | 47.45259 | -123.00832 | 11061 ft | 179 kts | 134° |
| 2026-05-05 23:55 | 47.44361 | -122.99560 | 11065 ft | 179 kts | 133° |
| 2026-05-05 23:55 | 47.43457 | -122.98283 | 11063 ft | 180 kts | 134° |
| 2026-05-05 23:56 | 47.42553 | -122.97005 | 11062 ft | 180 kts | 134° |
| 2026-05-05 23:56 | 47.41650 | -122.95727 | 11062 ft | 180 kts | 133° |
| 2026-05-05 23:56 | 47.40743 | -122.94446 | 11061 ft | 180 kts | 133° |
| 2026-05-05 23:56 | 47.39839 | -122.93169 | 11061 ft | 180 kts | 134° |
| 2026-05-05 23:57 | 47.38936 | -122.91896 | 11061 ft | 180 kts | 133° |
| 2026-05-05 23:57 | 47.38030 | -122.90618 | 11061 ft | 180 kts | 134° |
| 2026-05-05 23:57 | 47.37125 | -122.89342 | 11063 ft | 180 kts | 134° |
| 2026-05-05 23:57 | 47.36231 | -122.88082 | 11063 ft | 180 kts | 133° |
| 2026-05-05 23:58 | 47.35324 | -122.86805 | 11062 ft | 180 kts | 134° |
| 2026-05-05 23:58 | 47.34417 | -122.85528 | 11063 ft | 180 kts | 134° |
| 2026-05-05 23:58 | 47.33510 | -122.84251 | 11063 ft | 180 kts | 134° |
| 2026-05-05 23:58 | 47.32603 | -122.82976 | 11063 ft | 180 kts | 134° |
| 2026-05-05 23:59 | 47.31698 | -122.81705 | 11064 ft | 180 kts | 134° |
| 2026-05-05 23:59 | 47.30794 | -122.80434 | 11085 ft | 180 kts | 134° |
| 2026-05-05 23:59 | 47.29890 | -122.79164 | 11087 ft | 180 kts | 134° |
| 2026-05-05 23:59 | 47.28982 | -122.77891 | 11086 ft | 181 kts | 134° |
| 2026-05-06 00:00 | 47.28073 | -122.76616 | 11083 ft | 180 kts | 134° |
| 2026-05-06 00:00 | 47.27179 | -122.75362 | 11083 ft | 180 kts | 134° |
| 2026-05-06 00:00 | 47.26274 | -122.74093 | 11083 ft | 180 kts | 134° |
| 2026-05-06 00:00 | 47.25370 | -122.72828 | 11066 ft | 179 kts | 134° |
| 2026-05-06 00:01 | 47.24466 | -122.71561 | 11069 ft | 180 kts | 134° |
| 2026-05-06 00:01 | 47.23560 | -122.70293 | 11068 ft | 179 kts | 134° |
| 2026-05-06 00:01 | 47.22657 | -122.69029 | 11069 ft | 179 kts | 134° |
| 2026-05-06 00:01 | 47.21753 | -122.67766 | 11069 ft | 179 kts | 134° |
| 2026-05-06 00:02 | 47.20848 | -122.66502 | 11069 ft | 179 kts | 134° |
| 2026-05-06 00:02 | 47.19944 | -122.65240 | 11068 ft | 179 kts | 134° |
| 2026-05-06 00:02 | 47.19054 | -122.63997 | 11070 ft | 179 kts | 134° |
| 2026-05-06 00:02 | 47.18154 | -122.62742 | 11070 ft | 178 kts | 134° |
| 2026-05-06 00:03 | 47.17252 | -122.61485 | 11070 ft | 179 kts | 134° |
| 2026-05-06 00:03 | 47.16347 | -122.60223 | 11062 ft | 180 kts | 134° |
| 2026-05-06 00:03 | 47.15440 | -122.58959 | 11063 ft | 180 kts | 134° |
| 2026-05-06 00:03 | 47.14532 | -122.57696 | 11062 ft | 180 kts | 134° |
| 2026-05-06 00:04 | 47.13626 | -122.56434 | 11062 ft | 179 kts | 134° |
| 2026-05-06 00:04 | 47.12722 | -122.55176 | 11062 ft | 179 kts | 134° |
| 2026-05-06 00:04 | 47.11830 | -122.53936 | 11061 ft | 179 kts | 134° |
| 2026-05-06 00:04 | 47.10925 | -122.52678 | 11061 ft | 179 kts | 134° |
| 2026-05-06 00:05 | 47.09114 | -122.50164 | 11045 ft | 179 kts | 134° |
| 2026-05-06 00:05 | 47.08210 | -122.48909 | 11044 ft | 179 kts | 134° |
| 2026-05-06 00:05 | 47.07305 | -122.47653 | 11044 ft | 179 kts | 134° |
| 2026-05-06 00:06 | 47.06400 | -122.46399 | 11042 ft | 179 kts | 134° |
| 2026-05-06 00:06 | 47.05495 | -122.45144 | 11043 ft | 179 kts | 134° |
| 2026-05-06 00:06 | 47.04587 | -122.43887 | 11044 ft | 180 kts | 134° |
| 2026-05-06 00:06 | 47.03691 | -122.42647 | 11044 ft | 179 kts | 134° |
| 2026-05-06 00:07 | 47.02786 | -122.41395 | 11072 ft | 179 kts | 134° |
| 2026-05-06 00:07 | 47.01881 | -122.40143 | 11072 ft | 179 kts | 134° |
| 2026-05-06 00:07 | 47.00975 | -122.38891 | 11072 ft | 179 kts | 134° |
| 2026-05-06 00:07 | 47.00070 | -122.37640 | 11070 ft | 179 kts | 134° |
| 2026-05-06 00:08 | 46.99162 | -122.36386 | 11069 ft | 180 kts | 134° |
| 2026-05-06 00:08 | 46.98253 | -122.35132 | 11068 ft | 179 kts | 134° |
| 2026-05-06 00:08 | 46.97347 | -122.33883 | 11068 ft | 179 kts | 134° |
| 2026-05-06 00:08 | 46.96439 | -122.32630 | 11068 ft | 179 kts | 134° |
| 2026-05-06 00:09 | 46.95545 | -122.31399 | 11070 ft | 179 kts | 134° |
| 2026-05-06 00:09 | 46.94586 | -122.30243 | 11062 ft | 181 kts | 154° |
| 2026-05-06 00:09 | 46.93357 | -122.30194 | 11061 ft | 181 kts | 205° |
| 2026-05-06 00:09 | 46.92526 | -122.31454 | 11067 ft | 173 kts | 252° |
| 2026-05-06 00:10 | 46.92171 | -122.33127 | 11070 ft | 172 kts | 257° |
| 2026-05-06 00:10 | 46.91842 | -122.34814 | 11071 ft | 173 kts | 258° |
| 2026-05-06 00:10 | 46.91476 | -122.36491 | 11067 ft | 175 kts | 244° |
| 2026-05-06 00:10 | 46.90556 | -122.37650 | 11069 ft | 179 kts | 209° |
| 2026-05-06 00:11 | 46.89461 | -122.38461 | 11072 ft | 179 kts | 208° |
| 2026-05-06 00:11 | 46.88343 | -122.39278 | 11069 ft | 180 kts | 208° |
| 2026-05-06 00:11 | 46.87224 | -122.40092 | 11058 ft | 180 kts | 207° |
| 2026-05-06 00:11 | 46.86100 | -122.40907 | 11057 ft | 180 kts | 208° |
| 2026-05-06 00:12 | 46.84979 | -122.41725 | 11057 ft | 180 kts | 208° |
| 2026-05-06 00:12 | 46.83856 | -122.42540 | 11058 ft | 180 kts | 208° |
| 2026-05-06 00:12 | 46.82690 | -122.43206 | 11055 ft | 182 kts | 185° |
| 2026-05-06 00:12 | 46.81487 | -122.42759 | 11058 ft | 180 kts | 154° |
| 2026-05-06 00:13 | 46.80287 | -122.42232 | 11059 ft | 180 kts | 169° |
| 2026-05-06 00:13 | 46.79062 | -122.41973 | 11059 ft | 181 kts | 172° |
| 2026-05-06 00:13 | 46.77815 | -122.41729 | 11061 ft | 181 kts | 171° |
| 2026-05-06 00:13 | 46.76567 | -122.41472 | 11059 ft | 181 kts | 171° |
| 2026-05-06 00:14 | 46.75313 | -122.41210 | 11057 ft | 183 kts | 171° |
| 2026-05-06 00:14 | 46.74052 | -122.40946 | 11059 ft | 183 kts | 171° |
| 2026-05-06 00:14 | 46.72786 | -122.40682 | 11062 ft | 184 kts | 171° |
| 2026-05-06 00:14 | 46.71514 | -122.40417 | 11059 ft | 184 kts | 171° |
| 2026-05-06 00:15 | 46.70247 | -122.40154 | 11054 ft | 184 kts | 171° |
| 2026-05-06 00:15 | 46.68987 | -122.39892 | 11060 ft | 183 kts | 171° |
| 2026-05-06 00:15 | 46.67742 | -122.39633 | 11059 ft | 183 kts | 171° |
| 2026-05-06 00:15 | 46.66481 | -122.39371 | 11058 ft | 183 kts | 171° |
| 2026-05-06 00:16 | 46.65218 | -122.39109 | 11060 ft | 184 kts | 171° |
| 2026-05-06 00:16 | 46.63952 | -122.38845 | 11052 ft | 183 kts | 171° |
| 2026-05-06 00:16 | 46.62702 | -122.38586 | 11052 ft | 181 kts | 171° |
| 2026-05-06 00:16 | 46.61456 | -122.38327 | 11051 ft | 181 kts | 171° |
| 2026-05-06 00:17 | 46.60223 | -122.38073 | 11051 ft | 175 kts | 171° |
| 2026-05-06 00:17 | 46.59042 | -122.37829 | 11050 ft | 169 kts | 171° |
| 2026-05-06 00:17 | 46.57892 | -122.37590 | 11048 ft | 165 kts | 171° |
| 2026-05-06 00:17 | 46.56783 | -122.37360 | 11045 ft | 162 kts | 171° |
| 2026-05-06 00:18 | 46.55675 | -122.37130 | 11044 ft | 159 kts | 171° |
| 2026-05-06 00:18 | 46.54582 | -122.36904 | 11042 ft | 158 kts | 171° |
| 2026-05-06 00:18 | 46.53503 | -122.36682 | 11039 ft | 155 kts | 170° |
| 2026-05-06 00:18 | 46.52436 | -122.36461 | 11039 ft | 155 kts | 171° |
| 2026-05-06 00:19 | 46.51373 | -122.36240 | 11041 ft | 154 kts | 171° |
| 2026-05-06 00:19 | 46.50311 | -122.36020 | 11039 ft | 155 kts | 171° |
| 2026-05-06 00:19 | 46.49240 | -122.35800 | 11038 ft | 156 kts | 171° |
| 2026-05-06 00:19 | 46.48178 | -122.35580 | 11039 ft | 156 kts | 171° |
| 2026-05-06 00:20 | 46.47102 | -122.35358 | 11045 ft | 157 kts | 171° |
| 2026-05-06 00:20 | 46.46024 | -122.35136 | 11047 ft | 156 kts | 171° |
| 2026-05-06 00:20 | 46.44948 | -122.34914 | 11045 ft | 157 kts | 171° |
| 2026-05-06 00:20 | 46.43873 | -122.34692 | 11044 ft | 156 kts | 171° |
| 2026-05-06 00:21 | 46.42795 | -122.34470 | 11039 ft | 157 kts | 170° |
| 2026-05-06 00:21 | 46.41689 | -122.34242 | 11038 ft | 164 kts | 171° |
| 2026-05-06 00:21 | 46.40567 | -122.34010 | 11044 ft | 168 kts | 171° |
| 2026-05-06 00:22 | 46.39556 | -122.33808 | 11047 ft | 171 kts | 171° |
| 2026-05-06 00:22 | 46.38363 | -122.33564 | 11053 ft | 175 kts | 171° |
| 2026-05-06 00:22 | 46.37151 | -122.33312 | 11055 ft | 177 kts | 171° |
| 2026-05-06 00:22 | 46.35923 | -122.33057 | 11053 ft | 179 kts | 171° |
| 2026-05-06 00:23 | 46.34683 | -122.32802 | 11053 ft | 180 kts | 171° |
| 2026-05-06 00:23 | 46.33440 | -122.32548 | 11053 ft | 181 kts | 171° |
| 2026-05-06 00:23 | 46.32188 | -122.32290 | 11054 ft | 182 kts | 171° |
| 2026-05-06 00:23 | 46.30928 | -122.32031 | 11052 ft | 184 kts | 171° |
| 2026-05-06 00:24 | 46.29665 | -122.31773 | 11053 ft | 183 kts | 171° |
| 2026-05-06 00:24 | 46.28427 | -122.31519 | 11043 ft | 181 kts | 171° |
| 2026-05-06 00:24 | 46.27178 | -122.31264 | 11043 ft | 182 kts | 171° |
| 2026-05-06 00:24 | 46.25921 | -122.31040 | 11039 ft | 182 kts | 179° |
| 2026-05-06 00:25 | 46.24705 | -122.31500 | 11039 ft | 182 kts | 203° |
| 2026-05-06 00:25 | 46.23530 | -122.32174 | 11051 ft | 182 kts | 201° |
| 2026-05-06 00:25 | 46.22352 | -122.32830 | 11051 ft | 181 kts | 202° |
| 2026-05-06 00:25 | 46.21175 | -122.33486 | 11052 ft | 182 kts | 202° |
| 2026-05-06 00:26 | 46.19991 | -122.34146 | 11054 ft | 183 kts | 202° |
| 2026-05-06 00:26 | 46.18824 | -122.34798 | 11055 ft | 182 kts | 202° |
| 2026-05-06 00:26 | 46.17638 | -122.35460 | 11048 ft | 183 kts | 202° |
| 2026-05-06 00:26 | 46.16453 | -122.36120 | 11047 ft | 182 kts | 202° |
| 2026-05-06 00:27 | 46.15266 | -122.36781 | 11054 ft | 183 kts | 201° |
| 2026-05-06 00:27 | 46.14081 | -122.37442 | 11050 ft | 182 kts | 201° |
| 2026-05-06 00:27 | 46.12903 | -122.38097 | 11055 ft | 182 kts | 202° |
| 2026-05-06 00:27 | 46.11726 | -122.38751 | 11051 ft | 181 kts | 201° |
| 2026-05-06 00:28 | 46.10563 | -122.39399 | 11050 ft | 181 kts | 201° |
| 2026-05-06 00:28 | 46.09395 | -122.40048 | 11051 ft | 182 kts | 201° |
| 2026-05-06 00:28 | 46.08198 | -122.40713 | 11053 ft | 184 kts | 201° |
| 2026-05-06 00:28 | 46.07008 | -122.41373 | 11049 ft | 185 kts | 201° |
| 2026-05-06 00:29 | 46.05791 | -122.42050 | 11055 ft | 183 kts | 201° |
| 2026-05-06 00:29 | 46.04602 | -122.42708 | 11052 ft | 182 kts | 201° |
| 2026-05-06 00:29 | 46.03417 | -122.43366 | 11052 ft | 183 kts | 202° |
| 2026-05-06 00:29 | 46.02246 | -122.44019 | 11056 ft | 183 kts | 202° |
| 2026-05-06 00:30 | 46.01065 | -122.44673 | 11052 ft | 182 kts | 201° |
| 2026-05-06 00:30 | 45.99886 | -122.45324 | 11051 ft | 181 kts | 202° |
| 2026-05-06 00:30 | 45.98709 | -122.45974 | 11050 ft | 181 kts | 201° |
| 2026-05-06 00:30 | 45.97530 | -122.46626 | 11025 ft | 183 kts | 202° |
| 2026-05-06 00:31 | 45.96336 | -122.47286 | 11014 ft | 184 kts | 201° |
| 2026-05-06 00:31 | 45.95141 | -122.47947 | 11009 ft | 184 kts | 202° |
| 2026-05-06 00:31 | 45.93949 | -122.48605 | 11009 ft | 183 kts | 201° |
| 2026-05-06 00:31 | 45.92761 | -122.49261 | 11016 ft | 182 kts | 201° |
| 2026-05-06 00:32 | 45.91583 | -122.49911 | 11016 ft | 182 kts | 201° |
| 2026-05-06 00:32 | 45.90415 | -122.50556 | 11015 ft | 182 kts | 201° |
| 2026-05-06 00:32 | 45.89236 | -122.51205 | 11014 ft | 182 kts | 201° |
| 2026-05-06 00:32 | 45.88054 | -122.51857 | 11015 ft | 182 kts | 201° |
| 2026-05-06 00:33 | 45.86873 | -122.52507 | 11015 ft | 182 kts | 201° |
| 2026-05-06 00:33 | 45.85693 | -122.53158 | 11013 ft | 182 kts | 201° |
| 2026-05-06 00:33 | 45.84512 | -122.53807 | 11013 ft | 181 kts | 201° |
| 2026-05-06 00:33 | 45.83337 | -122.54454 | 11008 ft | 181 kts | 201° |
| 2026-05-06 00:34 | 45.82185 | -122.55087 | 11022 ft | 181 kts | 201° |
| 2026-05-06 00:34 | 45.81000 | -122.55739 | 11021 ft | 182 kts | 201° |
| 2026-05-06 00:34 | 45.79813 | -122.56391 | 11022 ft | 181 kts | 201° |
| 2026-05-06 00:34 | 45.78648 | -122.57031 | 11022 ft | 181 kts | 201° |
| 2026-05-06 00:35 | 45.77465 | -122.57681 | 11027 ft | 181 kts | 201° |
| 2026-05-06 00:35 | 45.76298 | -122.58321 | 11028 ft | 180 kts | 202° |
| 2026-05-06 00:35 | 45.75112 | -122.58971 | 11028 ft | 180 kts | 201° |
| 2026-05-06 00:35 | 45.73895 | -122.59372 | 11022 ft | 180 kts | 175° |
| 2026-05-06 00:36 | 45.72737 | -122.58777 | 11015 ft | 178 kts | 142° |
| 2026-05-06 00:36 | 45.71989 | -122.57416 | 10943 ft | 177 kts | 109° |
| 2026-05-06 00:36 | 45.71867 | -122.55717 | 10712 ft | 170 kts | 77° |
| 2026-05-06 00:36 | 45.72189 | -122.54144 | 10482 ft | 165 kts | 71° |
| 2026-05-06 00:37 | 45.72254 | -122.52521 | 10242 ft | 166 kts | 101° |
| 2026-05-06 00:37 | 45.71784 | -122.51008 | 10014 ft | 167 kts | 116° |
| 2026-05-06 00:37 | 45.71239 | -122.49550 | 9763 ft | 165 kts | 116° |
| 2026-05-06 00:37 | 45.70705 | -122.48110 | 9504 ft | 162 kts | 116° |
| 2026-05-06 00:38 | 45.70183 | -122.46692 | 9243 ft | 160 kts | 115° |
| 2026-05-06 00:38 | 45.69667 | -122.45295 | 8985 ft | 158 kts | 115° |
| 2026-05-06 00:38 | 45.69150 | -122.43931 | 8671 ft | 154 kts | 118° |
| 2026-05-06 00:38 | 45.68571 | -122.42598 | 8052 ft | 165 kts | 120° |
| 2026-05-06 00:39 | 45.67975 | -122.41221 | 7573 ft | 164 kts | 121° |
| 2026-05-06 00:39 | 45.67323 | -122.39872 | 7152 ft | 159 kts | 127° |
| 2026-05-06 00:39 | 45.66632 | -122.38750 | 6874 ft | 148 kts | 133° |
| 2026-05-06 00:39 | 45.65904 | -122.37673 | 6426 ft | 152 kts | 130° |
| 2026-05-06 00:40 | 45.65336 | -122.36478 | 6021 ft | 145 kts | 121° |
| 2026-05-06 00:40 | 45.64780 | -122.35248 | 5448 ft | 151 kts | 118° |
| 2026-05-06 00:40 | 45.64190 | -122.33993 | 4920 ft | 154 kts | 127° |
| 2026-05-06 00:40 | 45.63434 | -122.32943 | 4367 ft | 154 kts | 142° |
| 2026-05-06 00:41 | 45.62472 | -122.32266 | 3790 ft | 154 kts | 169° |
| 2026-05-06 00:41 | 45.61448 | -122.32083 | 3439 ft | 142 kts | 177° |
| 2026-05-06 00:41 | 45.60492 | -122.32118 | 3085 ft | 140 kts | 195° |
| 2026-05-06 00:41 | 45.59650 | -122.32578 | 3451 ft | 131 kts | 208° |
| 2026-05-06 00:42 | 45.58787 | -122.33222 | 3475 ft | 144 kts | 216° |
| 2026-05-06 00:42 | 45.58026 | -122.34129 | 3374 ft | 141 kts | 227° |
| 2026-05-06 00:42 | 45.57389 | -122.35172 | 3278 ft | 137 kts | 237° |
| 2026-05-06 00:42 | 45.56864 | -122.36319 | 3107 ft | 140 kts | 239° |
| 2026-05-06 00:43 | 45.56362 | -122.37494 | 2897 ft | 144 kts | 240° |
| 2026-05-06 00:43 | 45.55834 | -122.38769 | 2634 ft | 147 kts | 240° |
| 2026-05-06 00:43 | 45.55341 | -122.40042 | 2479 ft | 143 kts | 245° |
| 2026-05-06 00:43 | 45.55028 | -122.41349 | 2356 ft | 136 kts | 267° |
| 2026-05-06 00:44 | 45.54725 | -122.42633 | 2053 ft | 143 kts | 240° |
| 2026-05-06 00:44 | 45.54123 | -122.43711 | 2008 ft | 134 kts | 226° |
| 2026-05-06 00:44 | 45.53575 | -122.44769 | 1873 ft | 132 kts | 252° |
| 2026-05-06 00:44 | 45.53746 | -122.45908 | 1762 ft | 129 kts | 306° |
| 2026-05-06 00:45 | 45.54322 | -122.46985 | 1445 ft | 139 kts | 306° |
| 2026-05-06 00:45 | 45.54886 | -122.48073 | 1325 ft | 134 kts | 304° |
| 2026-05-06 00:45 | 45.55368 | -122.49208 | 1125 ft | 130 kts | 301° |
| 2026-05-06 00:45 | 45.55774 | -122.50221 | 1065 ft | 110 kts | 298° |
| 2026-05-06 00:46 | 45.56113 | -122.51173 | 942 ft | 108 kts | 303° |
| 2026-05-06 00:46 | 45.56500 | -122.52043 | 891 ft | 108 kts | 302° |
| 2026-05-06 00:46 | 45.56884 | -122.52915 | 686 ft | 99 kts | 301° |
| 2026-05-06 00:46 | 45.57215 | -122.53764 | 571 ft | 97 kts | 299° |
| 2026-05-06 00:47 | 45.57545 | -122.54618 | 402 ft | 99 kts | 301° |
| 2026-05-06 00:47 | 45.57895 | -122.55487 | 250 ft | 102 kts | 298° |
| 2026-05-06 00:47 | 45.58226 | -122.56354 | 109 ft | 96 kts | 300° |
| 2026-05-06 00:47 | 45.58536 | -122.57148 | 28 ft | 82 kts | 298° |
| 2026-05-06 00:48 | 45.58777 | -122.57765 | 30 ft | 63 kts | 299° |
| 2026-05-06 00:48 | 45.58911 | -122.58115 | 29 ft | 27 kts | 291° |
| 2026-05-06 00:48 | 45.58865 | -122.58217 | 30 ft | 12 kts | 210° |
| 2026-05-06 00:48 | 45.58847 | -122.58231 | 30 ft | 0 kts | 207° |
| 2026-05-06 00:49 | 45.58829 | -122.58246 | 29 ft | 11 kts | 211° |
| 2026-05-06 00:49 | 45.58726 | -122.58324 | 28 ft | 20 kts | 203° |
| 2026-05-06 00:49 | 45.58666 | -122.58305 | 27 ft | 10 kts | 213° |
| 2026-05-06 00:50 | 45.58611 | -122.58317 | 26 ft | 10 kts | 81° |
| 2026-05-06 00:50 | 45.58588 | -122.58304 | 27 ft | 0 kts | 201° |
| 2026-05-06 00:51 | 45.57963 | -122.55662 | 133 ft | 100 kts | 299° |
| 2026-05-06 00:52 | 45.57239 | -122.53824 | 569 ft | 88 kts | 299° |
| 2026-05-06 00:52 | 45.57459 | -122.54400 | 441 ft | 97 kts | 300° |
| 2026-05-06 00:52 | 45.57486 | -122.54470 | 421 ft | 98 kts | 300° |